Time;durP1;ratioP1;P1;durP2;ratioP2;P2;SDS_P1;SDS_P2;PMS_P1;PMS_P2;Temp;Humidity;BMP_temperature;BMP_pressure;BME280_temperature;BME280_humidity;BME280_pressure;Samples;Min_cycle;Max_cycle;Signal;HPM_P1;HPM_P2
2022/07/14 00:01:19;;;;;;;22.67;3.73;;;13.20;1.00;;;;;;4993069;28;20450;-55
2022/07/14 00:03:45;;;;;;;17.83;3.23;;;13.20;1.00;;;;;;4993565;28;20282;-56
2022/07/14 00:06:10;;;;;;;17.40;3.40;;;13.10;1.00;;;;;;4992220;28;20208;-56
2022/07/14 00:08:36;;;;;;;16.00;3.37;;;13.10;1.00;;;;;;4992766;28;20568;-55
2022/07/14 00:11:03;;;;;;;11.63;3.13;;;13.10;1.00;;;;;;4975049;28;20213;-56
2022/07/14 00:13:29;;;;;;;7.57;3.10;;;13.10;1.00;;;;;;4988586;28;21629;-56
2022/07/14 00:15:54;;;;;;;13.73;2.80;;;13.10;1.00;;;;;;4990202;28;20439;-56
2022/07/14 00:18:20;;;;;;;14.90;3.80;;;13.00;1.00;;;;;;4989148;28;20246;-56
2022/07/14 00:20:46;;;;;;;14.53;3.97;;;13.00;1.00;;;;;;4993044;28;20247;-55
2022/07/14 00:23:11;;;;;;;12.13;2.90;;;13.00;1.00;;;;;;4986370;28;20206;-56
2022/07/14 00:25:37;;;;;;;13.73;3.07;;;12.90;1.00;;;;;;4992720;28;20657;-56
2022/07/14 00:28:03;;;;;;;12.40;3.40;;;12.90;1.00;;;;;;4990199;28;20259;-56
2022/07/14 00:30:28;;;;;;;8.90;2.50;;;12.90;1.00;;;;;;4991724;28;20226;-56
2022/07/14 00:32:54;;;;;;;19.67;3.87;;;12.90;1.00;;;;;;4990562;28;20221;-56
2022/07/14 00:35:20;;;;;;;9.57;2.50;;;12.80;1.00;;;;;;4982056;28;20578;-56
2022/07/14 00:37:46;;;;;;;14.77;3.43;;;12.80;1.00;;;;;;4987487;28;20191;-55
2022/07/14 00:40:12;;;;;;;9.43;3.30;;;12.80;1.00;;;;;;4991861;28;20578;-54
2022/07/14 00:42:46;;;;;;;10.17;2.90;;;12.80;1.00;;;;;;4993085;28;20451;-56
2022/07/14 00:45:15;;;;;;;8.87;3.00;;;12.80;1.00;;;;;;4985838;28;20925;-57
2022/07/14 00:47:41;;;;;;;14.57;3.03;;;12.80;1.00;;;;;;4989106;28;20450;-56
2022/07/14 00:50:08;;;;;;;14.73;3.70;;;12.80;1.00;;;;;;4989560;28;20503;-56
2022/07/14 00:52:34;;;;;;;10.83;3.03;;;12.80;1.00;;;;;;4990265;28;20525;-56
2022/07/14 00:55:00;;;;;;;10.00;3.20;;;12.70;1.00;;;;;;4988708;28;20841;-55
2022/07/14 00:57:26;;;;;;;15.53;3.43;;;12.70;1.00;;;;;;4990938;28;20203;-56
2022/07/14 00:59:52;;;;;;;12.57;3.10;;;12.70;1.00;;;;;;4991608;28;20451;-56
2022/07/14 01:02:19;;;;;;;10.10;3.37;;;12.70;1.00;;;;;;4990271;28;20451;-56
2022/07/14 01:04:47;;;;;;;16.90;2.83;;;12.70;1.00;;;;;;4990766;28;20210;-56
2022/07/14 01:07:14;;;;;;;9.47;2.93;;;12.70;1.00;;;;;;4991514;28;20451;-56
2022/07/14 01:09:40;;;;;;;21.03;3.97;;;12.70;1.00;;;;;;4991701;28;20439;-56
2022/07/14 01:12:07;;;;;;;9.07;2.93;;;12.80;1.00;;;;;;4988904;28;20471;-56
2022/07/14 01:14:35;;;;;;;10.17;3.13;;;12.80;1.00;;;;;;4991623;28;20450;-56
2022/07/14 01:17:01;;;;;;;14.07;2.97;;;12.70;1.00;;;;;;4989933;28;20446;-56
2022/07/14 01:19:26;;;;;;;12.70;3.27;;;12.70;1.00;;;;;;4989382;28;20847;-55
2022/07/14 01:21:54;;;;;;;12.90;2.80;;;12.70;1.00;;;;;;4988911;28;20929;-55
2022/07/14 01:24:20;;;;;;;11.60;3.57;;;12.60;1.00;;;;;;4988125;28;20214;-57
2022/07/14 01:26:46;;;;;;;10.43;3.33;;;12.60;1.00;;;;;;4987787;28;21239;-55
2022/07/14 01:29:12;;;;;;;9.43;2.87;;;12.60;1.00;;;;;;4989341;28;20482;-56
2022/07/14 01:31:37;;;;;;;12.17;3.10;;;12.50;1.00;;;;;;4990477;28;20243;-56
2022/07/14 01:34:03;;;;;;;11.37;3.30;;;12.50;1.00;;;;;;4991554;28;20195;-56
2022/07/14 01:36:28;;;;;;;13.10;3.70;;;12.50;1.00;;;;;;4990606;28;20196;-57
2022/07/14 01:38:54;;;;;;;18.23;3.33;;;12.40;1.00;;;;;;4988109;28;20250;-56
2022/07/14 01:41:21;;;;;;;10.53;3.00;;;12.40;1.00;;;;;;4990789;28;20254;-56
2022/07/14 01:43:48;;;;;;;11.03;2.70;;;12.40;1.00;;;;;;4990262;28;20654;-56
2022/07/14 01:46:14;;;;;;;8.97;3.10;;;12.30;1.00;;;;;;4988809;28;20533;-55
2022/07/14 01:48:39;;;;;;;9.50;3.10;;;12.30;1.00;;;;;;4988721;28;20444;-56
2022/07/14 01:51:05;;;;;;;9.43;2.90;;;12.20;1.00;;;;;;4989672;28;20281;-57
2022/07/14 01:53:31;;;;;;;13.00;3.40;;;12.20;1.00;;;;;;4992186;28;20193;-55
2022/07/14 01:55:58;;;;;;;18.90;4.00;;;12.20;1.00;;;;;;4989047;28;20251;-56
2022/07/14 01:58:24;;;;;;;12.10;3.30;;;12.20;1.00;;;;;;4988280;28;20676;-52
2022/07/14 02:03:33;;;;;;;12.13;3.20;;;12.20;1.50;;;;;;4991090;28;20211;-53
2022/07/14 02:06:00;;;;;;;13.53;3.50;;;12.10;1.00;;;;;;4988506;28;20452;-56
2022/07/14 02:08:26;;;;;;;9.83;3.17;;;12.10;17.20;;;;;;4985342;28;20683;-55
2022/07/14 02:13:36;;;;;;;10.80;3.60;;;12.10;1.00;;;;;;4989311;28;20626;-56
2022/07/14 02:16:02;;;;;;;8.20;2.97;;;12.00;1.00;;;;;;4988096;28;21025;-56
2022/07/14 02:18:28;;;;;;;11.70;4.10;;;12.00;1.00;;;;;;4985615;28;20271;-57
2022/07/14 02:20:54;;;;;;;10.97;3.00;;;12.00;1.00;;;;;;4982468;28;21013;-55
2022/07/14 02:23:20;;;;;;;11.83;3.30;;;12.10;33.40;;;;;;4990320;28;20279;-56
2022/07/14 02:25:46;;;;;;;17.80;3.07;;;12.10;89.00;;;;;;4985381;28;20571;-56
2022/07/14 02:28:12;;;;;;;6.73;2.93;;;12.00;53.00;;;;;;4981778;28;20535;-57
2022/07/14 02:30:38;;;;;;;9.70;3.47;;;12.00;12.50;;;;;;4988668;28;20578;-57
2022/07/14 02:33:04;;;;;;;16.70;3.40;;;12.00;65.70;;;;;;4990259;28;20361;-56
2022/07/14 02:35:29;;;;;;;11.53;3.10;;;12.00;57.80;;;;;;4989438;28;20443;-56
2022/07/14 02:37:55;;;;;;;9.50;3.37;;;12.00;20.20;;;;;;4990343;28;20195;-56
2022/07/14 02:40:21;;;;;;;7.00;2.97;;;12.10;25.30;;;;;;4987878;28;20243;-56
2022/07/14 02:42:46;;;;;;;12.10;3.00;;;12.10;1.00;;;;;;4991326;28;20653;-58
2022/07/14 02:45:12;;;;;;;12.13;3.30;;;12.00;1.00;;;;;;4988343;28;20195;-56
2022/07/14 02:47:38;;;;;;;7.73;3.27;;;12.00;1.00;;;;;;4986507;28;20203;-56
2022/07/14 02:50:05;;;;;;;10.33;2.90;;;12.00;6.70;;;;;;4986688;28;20474;-55
2022/07/14 02:52:30;;;;;;;5.27;2.03;;;12.00;8.20;;;;;;4990301;28;20196;-57
2022/07/14 02:54:56;;;;;;;6.47;2.50;;;12.00;5.90;;;;;;4989537;28;20466;-57
2022/07/14 02:57:21;;;;;;;6.00;2.90;;;12.00;1.00;;;;;;4985688;28;20192;-56
2022/07/14 02:59:47;;;;;;;9.10;2.70;;;11.90;1.00;;;;;;4989621;28;20188;-56
2022/07/14 03:02:13;;;;;;;14.97;2.80;;;11.90;1.00;;;;;;4984797;28;20224;-56
2022/07/14 03:04:39;;;;;;;9.67;2.83;;;11.90;1.00;;;;;;4990264;28;20197;-57
2022/07/14 03:07:04;;;;;;;16.13;3.07;;;11.90;1.00;;;;;;4986847;28;20207;-56
2022/07/14 03:09:30;;;;;;;18.17;3.50;;;11.90;23.20;;;;;;4979439;28;20443;-56
2022/07/14 03:11:56;;;;;;;9.23;3.33;;;11.90;1.00;;;;;;4990593;28;20220;-56
2022/07/14 03:14:21;;;;;;;8.37;2.67;;;11.90;1.00;;;;;;4988324;28;21156;-56
2022/07/14 03:16:47;;;;;;;8.67;3.17;;;11.90;1.00;;;;;;4989285;28;20200;-56
2022/07/14 03:19:13;;;;;;;8.07;2.90;;;11.80;1.00;;;;;;4990155;28;20201;-56
2022/07/14 03:21:39;;;;;;;9.40;2.73;;;11.80;1.00;;;;;;4987679;28;20208;-56
2022/07/14 03:24:06;;;;;;;10.17;2.83;;;11.80;1.00;;;;;;4987471;28;20447;-56
2022/07/14 03:26:31;;;;;;;19.20;3.37;;;11.80;1.00;;;;;;4987383;28;20192;-56
2022/07/14 03:28:57;;;;;;;6.03;2.80;;;11.80;7.90;;;;;;4985715;28;20795;-56
2022/07/14 03:31:23;;;;;;;19.67;3.23;;;11.70;65.80;;;;;;4986447;28;20220;-55
2022/07/14 03:33:49;;;;;;;15.77;3.57;;;11.80;31.30;;;;;;4989029;28;20207;-57
2022/07/14 03:36:15;;;;;;;13.93;2.73;;;11.70;58.70;;;;;;4987217;28;20736;-56
2022/07/14 03:38:41;;;;;;;9.40;2.97;;;11.70;54.10;;;;;;4990085;28;20459;-55
2022/07/14 03:41:07;;;;;;;6.90;2.70;;;11.70;87.80;;;;;;4988863;28;20319;-56
2022/07/14 03:43:33;;;;;;;16.80;2.73;;;11.70;75.20;;;;;;4989015;28;20196;-54
2022/07/14 03:45:59;;;;;;;7.07;2.60;;;11.70;87.20;;;;;;4986054;28;20530;-62
2022/07/14 03:48:24;;;;;;;11.10;3.77;;;11.70;93.20;;;;;;4991081;28;20609;-56
2022/07/14 03:50:50;;;;;;;7.20;3.27;;;11.70;99.90;;;;;;4993034;28;20882;-55
2022/07/14 03:53:16;;;;;;;11.87;4.03;;;11.70;99.90;;;;;;4991933;28;20215;-56
2022/07/14 03:55:45;;;;;;;7.67;4.20;;;11.70;99.90;;;;;;4991580;28;20313;-56
2022/07/14 03:58:11;;;;;;;9.87;3.50;;;11.80;99.90;;;;;;4992183;28;20236;-56
2022/07/14 04:00:37;;;;;;;9.97;3.37;;;11.90;99.90;;;;;;4992035;28;20459;-56
2022/07/14 04:03:02;;;;;;;8.70;3.27;;;11.90;99.90;;;;;;4986594;28;20200;-56
2022/07/14 04:05:28;;;;;;;17.60;4.90;;;11.90;99.90;;;;;;4987931;28;20458;-56
2022/07/14 04:07:54;;;;;;;14.47;5.20;;;12.00;99.90;;;;;;4991431;28;20200;-56
2022/07/14 04:10:20;;;;;;;13.70;4.50;;;12.10;99.90;;;;;;4991406;28;20248;-55
2022/07/14 04:12:46;;;;;;;15.23;4.53;;;12.10;99.90;;;;;;4992823;28;20478;-56
2022/07/14 04:15:12;;;;;;;9.10;4.07;;;12.20;99.90;;;;;;4987256;28;20651;-56
2022/07/14 04:17:38;;;;;;;12.57;3.93;;;12.30;99.90;;;;;;4992123;28;20188;-57
2022/07/14 04:20:04;;;;;;;22.37;4.33;;;12.40;99.90;;;;;;4992378;28;20450;-55
2022/07/14 04:22:30;;;;;;;20.47;4.33;;;12.50;99.90;;;;;;4993319;28;20537;-56
2022/07/14 04:24:55;;;;;;;15.13;3.93;;;12.50;99.90;;;;;;4989860;28;20482;-57
2022/07/14 04:27:21;;;;;;;14.10;3.70;;;12.60;99.90;;;;;;4992764;28;20207;-56
2022/07/14 04:29:47;;;;;;;9.60;3.23;;;12.60;99.90;;;;;;4986070;28;20198;-56
2022/07/14 04:32:12;;;;;;;20.60;3.70;;;12.70;99.90;;;;;;4990497;28;20255;-57
2022/07/14 04:34:39;;;;;;;11.90;3.47;;;12.70;99.90;;;;;;4991660;28;20204;-55
2022/07/14 04:37:04;;;;;;;16.93;3.77;;;12.90;99.90;;;;;;4986809;28;20189;-57
2022/07/14 04:39:30;;;;;;;10.50;3.10;;;12.90;99.90;;;;;;4989221;28;20494;-56
2022/07/14 04:41:56;;;;;;;9.40;3.67;;;13.00;99.90;;;;;;4992882;28;20204;-56
2022/07/14 04:44:21;;;;;;;10.77;3.53;;;13.20;43.90;;;;;;4990354;28;20208;-56
2022/07/14 04:46:47;;;;;;;11.80;3.83;;;13.40;1.00;;;;;;4992029;28;20203;-56
2022/07/14 04:52:03;;;;;;;10.87;3.73;;;13.70;1.00;;;;;;4989902;28;20227;-57
2022/07/14 04:54:30;;;;;;;16.33;4.03;;;13.90;1.00;;;;;;4977509;28;20547;-56
2022/07/14 04:56:55;;;;;;;11.90;4.00;;;14.10;1.00;;;;;;4989493;28;20451;-56
2022/07/14 04:59:21;;;;;;;9.20;3.30;;;14.30;1.00;;;;;;4989309;28;20453;-54
2022/07/14 05:01:47;;;;;;;14.83;3.40;;;14.50;99.90;;;;;;4991300;28;20270;-57
2022/07/14 05:04:12;;;;;;;14.97;3.80;;;14.70;99.90;;;;;;4990247;28;20231;-57
2022/07/14 05:06:38;;;;;;;8.70;3.60;;;14.80;99.90;;;;;;4990331;28;20543;-56
2022/07/14 05:09:04;;;;;;;10.73;3.80;;;15.00;99.90;;;;;;4990717;28;20200;-57
2022/07/14 05:11:30;;;;;;;8.70;3.27;;;15.20;99.90;;;;;;4991145;28;20212;-56
2022/07/14 05:13:57;;;;;;;8.77;3.57;;;15.40;99.90;;;;;;4987055;28;20196;-55
2022/07/14 05:16:22;;;;;;;9.50;3.43;;;15.50;99.90;;;;;;4992166;28;20837;-57
2022/07/14 05:18:48;;;;;;;8.23;3.10;;;15.60;99.90;;;;;;4991442;28;20530;-56
2022/07/14 05:21:14;;;;;;;10.00;2.90;;;15.70;99.90;;;;;;4991990;28;20215;-57
2022/07/14 05:23:41;;;;;;;10.60;2.97;;;15.80;99.90;;;;;;4990546;28;20341;-57
2022/07/14 05:26:11;;;;;;;12.53;2.90;;;15.80;99.90;;;;;;4991131;28;20458;-56
2022/07/14 05:28:37;;;;;;;10.50;3.20;;;15.90;99.90;;;;;;4986794;28;20446;-57
2022/07/14 05:31:03;;;;;;;10.80;3.00;;;16.10;99.90;;;;;;4989209;28;20478;-57
2022/07/14 05:33:28;;;;;;;17.50;3.20;;;16.10;99.90;;;;;;4987348;28;20196;-57
2022/07/14 05:35:55;;;;;;;7.43;2.47;;;16.20;99.90;;;;;;4990652;28;20200;-56
2022/07/14 05:38:24;;;;;;;29.57;2.80;;;16.40;99.90;;;;;;4997656;28;20188;-57
2022/07/14 05:40:50;;;;;;;8.60;2.50;;;16.50;99.90;;;;;;4994959;28;20578;-57
2022/07/14 05:43:16;;;;;;;6.00;1.80;;;16.70;99.90;;;;;;4990837;28;20937;-57
2022/07/14 05:45:42;;;;;;;7.53;2.20;;;16.90;99.90;;;;;;4991139;28;20458;-52
2022/07/14 05:48:09;;;;;;;6.10;1.97;;;17.00;99.90;;;;;;4989613;28;20440;-52
2022/07/14 05:50:34;;;;;;;7.40;2.07;;;17.20;99.90;;;;;;4988095;28;20502;-51
2022/07/14 05:53:00;;;;;;;4.20;1.67;;;17.30;99.90;;;;;;4987791;28;20188;-52
2022/07/14 05:55:25;;;;;;;7.47;1.60;;;17.30;99.90;;;;;;4989408;28;20220;-52
2022/07/14 05:57:51;;;;;;;13.80;2.73;;;17.50;99.90;;;;;;4990104;28;20279;-52
2022/07/14 06:00:17;;;;;;;13.00;2.43;;;17.60;99.90;;;;;;4991306;28;20200;-51
2022/07/14 06:02:43;;;;;;;5.70;1.67;;;17.70;99.90;;;;;;4990733;28;20247;-52
2022/07/14 06:05:10;;;;;;;8.63;1.93;;;17.90;99.90;;;;;;4991901;28;20454;-52
2022/07/14 06:07:36;;;;;;;7.17;1.60;;;18.00;99.90;;;;;;4991136;28;20436;-52
2022/07/14 06:10:02;;;;;;;5.30;1.33;;;18.10;99.90;;;;;;4990792;28;20458;-52
2022/07/14 06:12:28;;;;;;;6.13;1.30;;;18.30;99.90;;;;;;4991217;28;20447;-51
2022/07/14 06:14:54;;;;;;;5.43;1.50;;;18.30;99.90;;;;;;4986257;28;20458;-52
2022/07/14 06:17:20;;;;;;;11.57;1.67;;;18.50;99.90;;;;;;4989416;28;20197;-52
2022/07/14 06:19:45;;;;;;;5.30;1.40;;;18.60;99.90;;;;;;4990636;28;20176;-52
2022/07/14 06:22:11;;;;;;;7.13;1.20;;;18.70;99.90;;;;;;4987653;28;20219;-53
2022/07/14 06:24:38;;;;;;;4.13;1.40;;;18.80;99.90;;;;;;4991343;28;20763;-52
2022/07/14 06:27:04;;;;;;;6.37;1.20;;;18.90;99.90;;;;;;4990438;28;20280;-51
2022/07/14 06:29:29;;;;;;;5.33;1.40;;;19.10;99.90;;;;;;4991603;28;21126;-52
2022/07/14 06:31:55;;;;;;;5.60;1.60;;;19.50;99.90;;;;;;4991967;28;20739;-52
2022/07/14 06:34:24;;;;;;;4.60;1.30;;;19.80;99.90;;;;;;4991375;28;20864;-51
2022/07/14 06:36:50;;;;;;;3.83;1.33;;;19.80;99.90;;;;;;4991198;28;20776;-52
2022/07/14 06:39:16;;;;;;;2.70;1.10;;;19.80;99.90;;;;;;4991206;28;20477;-52
2022/07/14 06:41:42;;;;;;;5.90;1.53;;;20.00;99.90;;;;;;4981366;28;20204;-52
2022/07/14 06:44:07;;;;;;;4.63;1.00;;;20.00;99.90;;;;;;4984247;28;20722;-52
2022/07/14 06:46:33;;;;;;;3.70;1.10;;;20.20;99.90;;;;;;4989078;28;20998;-57
2022/07/14 06:49:00;;;;;;;3.87;1.40;;;20.40;99.90;;;;;;4990066;28;20181;-51
2022/07/14 06:51:26;;;;;;;1.30;1.20;;;20.40;99.90;;;;;;4985404;28;20208;-52
2022/07/14 06:53:52;;;;;;;5.57;1.20;;;20.00;99.90;;;;;;4990579;28;20439;-52
2022/07/14 06:56:18;;;;;;;5.77;1.17;;;19.50;99.90;;;;;;4991554;28;21192;-52
2022/07/14 06:58:44;;;;;;;3.37;1.00;;;19.30;99.90;;;;;;4975698;28;20444;-52
2022/07/14 07:01:10;;;;;;;5.20;1.13;;;19.60;99.90;;;;;;4983131;28;20195;-52
2022/07/14 07:03:35;;;;;;;3.90;1.20;;;19.60;99.90;;;;;;4992380;28;20188;-52
2022/07/14 07:08:45;;;;;;;6.80;1.50;;;19.80;99.90;;;;;;4973634;28;20184;-53
2022/07/14 07:11:11;;;;;;;7.23;1.27;;;20.10;99.90;;;;;;4981305;28;20475;-52
2022/07/14 07:13:37;;;;;;;3.57;1.13;;;20.50;99.90;;;;;;4988580;28;20203;-53
2022/07/14 07:16:08;;;;;;;3.23;1.10;;;20.90;99.90;;;;;;4991046;28;20280;-51
2022/07/14 07:18:36;;;;;;;2.70;1.10;;;20.20;99.90;;;;;;4992065;28;20917;-51
2022/07/14 07:21:03;;;;;;;3.87;1.10;;;19.60;99.90;;;;;;4985342;28;20772;-52
2022/07/14 07:23:30;;;;;;;7.43;1.57;;;19.30;99.90;;;;;;4973472;28;20424;-52
2022/07/14 07:25:56;;;;;;;5.97;1.17;;;18.80;99.90;;;;;;4976187;28;20427;-52
2022/07/14 07:28:21;;;;;;;3.70;1.03;;;19.00;99.90;;;;;;4975234;28;20886;-53
2022/07/14 07:30:48;;;;;;;2.60;1.23;;;19.60;99.90;;;;;;4975190;28;20200;-52
2022/07/14 07:33:14;;;;;;;3.43;1.40;;;20.40;99.90;;;;;;4975553;28;20185;-52
2022/07/14 07:35:42;;;;;;;4.20;1.20;;;21.10;99.90;;;;;;4975604;28;20409;-53
2022/07/14 07:38:08;;;;;;;2.23;1.07;;;21.70;99.90;;;;;;4995191;28;20406;-56
2022/07/14 07:40:34;;;;;;;6.17;1.10;;;21.90;99.90;;;;;;4978449;28;20483;-56
2022/07/14 07:43:00;;;;;;;3.83;0.97;;;21.60;99.90;;;;;;4974859;28;20919;-56
2022/07/14 07:45:26;;;;;;;3.83;1.40;;;21.10;99.90;;;;;;4975013;28;20237;-57
2022/07/14 07:47:51;;;;;;;2.00;1.00;;;20.30;99.90;;;;;;4974668;28;20177;-57
2022/07/14 07:50:17;;;;;;;2.17;0.80;;;19.80;99.90;;;;;;4975125;28;20192;-56
2022/07/14 07:52:43;;;;;;;3.13;1.03;;;20.10;99.90;;;;;;4974582;28;20599;-56
2022/07/14 07:55:09;;;;;;;3.70;1.23;;;20.70;99.90;;;;;;4974838;28;20232;-56
2022/07/14 07:57:36;;;;;;;6.93;1.27;;;20.50;99.90;;;;;;4975357;28;20178;-56
2022/07/14 08:00:05;;;;;;;4.57;1.00;;;19.80;99.90;;;;;;4975688;28;20804;-56
2022/07/14 08:02:30;;;;;;;4.00;1.10;;;19.20;99.90;;;;;;4977041;28;20416;-56
2022/07/14 08:04:56;;;;;;;4.03;1.10;;;18.90;99.90;;;;;;4976980;28;20425;-64
2022/07/14 08:07:22;;;;;;;5.47;1.20;;;19.60;99.90;;;;;;4976350;28;20188;-55
2022/07/14 08:09:48;;;;;;;3.17;1.10;;;20.50;99.90;;;;;;4979175;28;20204;-56
2022/07/14 08:12:14;;;;;;;2.87;0.90;;;21.20;99.90;;;;;;4994482;28;20227;-56
2022/07/14 08:14:48;;;;;;;3.23;0.80;;;21.70;99.90;;;;;;4996873;28;20451;-56
2022/07/14 08:17:15;;;;;;;2.20;0.90;;;21.90;99.90;;;;;;4995790;28;20227;-55
2022/07/14 08:19:41;;;;;;;3.63;1.10;;;21.80;99.90;;;;;;4996489;28;20481;-54
2022/07/14 08:22:06;;;;;;;3.13;1.00;;;21.20;99.90;;;;;;4995714;28;20412;-55
2022/07/14 08:24:32;;;;;;;4.23;0.90;;;21.20;99.90;;;;;;4996077;28;20177;-56
2022/07/14 08:26:58;;;;;;;2.77;0.87;;;21.40;99.90;;;;;;4978879;28;20189;-56
2022/07/14 08:29:23;;;;;;;2.27;1.00;;;21.70;99.90;;;;;;4976756;28;20413;-58
2022/07/14 08:31:49;;;;;;;3.00;1.00;;;22.40;99.90;;;;;;4975183;28;20208;-58
2022/07/14 08:34:15;;;;;;;2.20;1.00;;;22.50;99.90;;;;;;4973963;28;20529;-55
2022/07/14 08:36:41;;;;;;;2.43;0.90;;;22.40;99.90;;;;;;4971912;28;20435;-56
2022/07/14 08:39:08;;;;;;;3.90;1.10;;;22.70;99.90;;;;;;4973154;28;20232;-56
2022/07/14 08:41:37;;;;;;;2.70;0.80;;;23.50;99.90;;;;;;4982353;28;20195;-56
2022/07/14 08:44:04;;;;;;;1.33;0.87;;;23.80;99.90;;;;;;4974257;28;20526;-60
2022/07/14 08:46:36;;;;;;;5.13;1.00;;;24.20;99.90;;;;;;4973742;28;20420;-56
2022/07/14 08:49:04;;;;;;;4.50;1.07;;;23.70;99.90;;;;;;4973980;28;20408;-56
2022/07/14 08:51:32;;;;;;;6.83;1.20;;;22.90;99.90;;;;;;4973768;28;20456;-56
2022/07/14 08:53:58;;;;;;;4.67;0.87;;;22.30;99.90;;;;;;4973615;28;20495;-56
2022/07/14 08:56:23;;;;;;;2.60;0.80;;;22.40;99.90;;;;;;4973991;28;20551;-57
2022/07/14 08:58:49;;;;;;;3.83;1.33;;;22.20;99.90;;;;;;4973564;28;20185;-55
2022/07/14 09:01:15;;;;;;;2.03;1.00;;;21.70;99.90;;;;;;4973572;28;20185;-56
2022/07/14 09:03:40;;;;;;;1.20;0.87;;;21.00;99.90;;;;;;4973689;28;20200;-56
2022/07/14 09:06:06;;;;;;;2.63;1.27;;;20.80;99.90;;;;;;4973756;28;20177;-55
2022/07/14 09:08:55;;;;;;;2.50;0.97;;;21.20;99.90;;;;;;4973642;28;20193;-57
2022/07/14 09:11:22;;;;;;;3.73;1.60;;;21.70;99.90;;;;;;4973388;28;20201;-52
2022/07/14 09:13:49;;;;;;;3.13;1.10;;;22.20;99.90;;;;;;4972168;28;20413;-51
2022/07/14 09:16:22;;;;;;;1.53;0.90;;;23.10;99.90;;;;;;4972920;28;20444;-51
2022/07/14 09:19:09;;;;;;;2.90;1.10;;;24.10;99.90;;;;;;4973068;28;20408;-52
2022/07/14 09:21:37;;;;;;;2.17;0.80;;;24.10;99.90;;;;;;4973391;28;20420;-52
2022/07/14 09:24:08;;;;;;;3.67;1.23;;;23.30;99.90;;;;;;4973082;28;20436;-51
2022/07/14 09:26:42;;;;;;;5.23;1.00;;;22.40;99.90;;;;;;4972327;28;20419;-51
2022/07/14 09:29:15;;;;;;;2.83;1.10;;;21.70;99.90;;;;;;4976225;28;20526;-52
2022/07/14 09:31:41;;;;;;;3.80;1.00;;;21.50;99.90;;;;;;4972786;28;20475;-52
2022/07/14 09:34:07;;;;;;;3.23;1.00;;;22.20;99.90;;;;;;4972896;28;20765;-51
2022/07/14 09:36:35;;;;;;;2.80;0.90;;;22.90;99.90;;;;;;4973429;28;20408;-51
2022/07/14 09:39:09;;;;;;;6.60;1.00;;;23.80;99.90;;;;;;4972763;28;20225;-51
2022/07/14 09:41:47;;;;;;;5.90;0.97;;;24.90;99.90;;;;;;4973125;28;20495;-51
2022/07/14 09:44:17;;;;;;;2.13;0.90;;;25.40;99.90;;;;;;4990864;28;20440;-51
2022/07/14 09:46:56;;;;;;;1.83;0.80;;;25.10;99.90;;;;;;4991716;28;20426;-51
2022/07/14 09:49:30;;;;;;;1.57;0.77;;;24.90;99.90;;;;;;4991980;28;20474;-52
2022/07/14 09:52:04;;;;;;;2.43;1.07;;;24.60;99.90;;;;;;4992016;28;20465;-51
2022/07/14 09:54:47;;;;;;;3.40;0.90;;;24.50;99.90;;;;;;4992152;28;20406;-51
2022/07/14 09:57:13;;;;;;;1.97;0.70;;;24.30;99.90;;;;;;4992238;28;20427;-52
2022/07/14 09:59:47;;;;;;;2.43;0.80;;;24.00;99.90;;;;;;4989056;28;20438;-51
2022/07/14 10:02:27;;;;;;;2.93;0.70;;;23.60;99.90;;;;;;4991664;28;20181;-51
2022/07/14 10:04:55;;;;;;;3.10;1.20;;;23.20;99.90;;;;;;4992292;28;20408;-52
2022/07/14 10:07:23;;;;;;;3.23;1.10;;;22.80;99.90;;;;;;4992152;28;20420;-52
2022/07/14 10:10:03;;;;;;;3.90;0.90;;;22.70;99.90;;;;;;4991019;28;20439;-52
2022/07/14 10:12:29;;;;;;;3.43;1.00;;;22.40;99.90;;;;;;4991892;28;20483;-52
2022/07/14 10:15:00;;;;;;;2.03;1.00;;;22.10;99.90;;;;;;4992534;28;20422;-52
2022/07/14 10:17:28;;;;;;;2.30;0.80;;;21.80;99.90;;;;;;4991976;28;20498;-52
2022/07/14 10:19:54;;;;;;;1.63;1.00;;;21.70;99.90;;;;;;4991780;28;20753;-52
2022/07/14 10:22:20;;;;;;;3.93;1.00;;;21.80;99.90;;;;;;4992212;28;20498;-52
2022/07/14 10:24:49;;;;;;;1.53;0.90;;;22.00;99.90;;;;;;4992033;28;20420;-52
2022/07/14 10:27:18;;;;;;;5.30;1.20;;;22.10;99.90;;;;;;4992130;28;20482;-52
2022/07/14 10:29:53;;;;;;;3.60;1.27;;;22.10;99.90;;;;;;4991539;28;20772;-52
2022/07/14 10:32:37;;;;;;;3.73;1.43;;;22.10;99.90;;;;;;4991371;28;20474;-52
2022/07/14 10:35:03;;;;;;;2.87;1.33;;;22.10;99.90;;;;;;4991511;28;20762;-56
2022/07/14 10:38:00;;;;;;;2.53;1.17;;;22.40;99.90;;;;;;4991228;28;20420;-52
2022/07/14 10:40:35;;;;;;;2.30;1.10;;;22.40;99.90;;;;;;4987275;28;20236;-52
2022/07/14 10:43:06;;;;;;;5.00;1.00;;;22.20;99.90;;;;;;4991229;28;20427;-54
2022/07/14 10:45:32;;;;;;;2.40;1.20;;;22.20;99.90;;;;;;4991146;28;20785;-52
2022/07/14 10:47:58;;;;;;;3.70;1.13;;;22.40;99.90;;;;;;4991519;28;20942;-52
2022/07/14 10:50:29;;;;;;;5.60;0.97;;;22.70;99.90;;;;;;4991197;28;20487;-52
2022/07/14 10:52:55;;;;;;;3.80;1.10;;;22.70;99.90;;;;;;4990934;28;20185;-52
2022/07/14 10:55:31;;;;;;;2.10;1.10;;;22.90;99.90;;;;;;4991366;28;20404;-53
2022/07/14 10:58:00;;;;;;;1.90;1.10;;;22.70;99.90;;;;;;4991288;28;20169;-52
2022/07/14 11:00:41;;;;;;;1.83;1.07;;;22.40;99.90;;;;;;4995133;28;20820;-52
2022/07/14 11:03:28;;;;;;;5.87;1.40;;;22.40;99.90;;;;;;4995212;28;20430;-52
2022/07/14 11:06:00;;;;;;;5.13;1.23;;;22.30;99.90;;;;;;4995162;28;21106;-52
2022/07/14 11:08:26;;;;;;;5.77;1.20;;;22.60;99.90;;;;;;4993137;28;20438;-52
2022/07/14 11:10:56;;;;;;;3.63;1.10;;;22.70;99.90;;;;;;4994406;28;20815;-56
2022/07/14 11:13:23;;;;;;;3.63;1.00;;;22.70;99.90;;;;;;4994753;28;20532;-56
2022/07/14 11:16:02;;;;;;;4.50;1.10;;;22.50;99.90;;;;;;4987346;28;20465;-56
2022/07/14 11:18:37;;;;;;;3.50;1.00;;;22.40;99.90;;;;;;4976081;28;20397;-57
2022/07/14 11:21:16;;;;;;;2.83;1.10;;;22.50;99.90;;;;;;4975296;28;20507;-56
2022/07/14 11:23:51;;;;;;;3.53;0.93;;;22.50;99.90;;;;;;4975198;28;20400;-57
2022/07/14 11:26:50;;;;;;;3.90;1.10;;;22.30;99.90;;;;;;4975158;28;20415;-56
2022/07/14 11:29:31;;;;;;;3.87;1.00;;;22.10;99.90;;;;;;4953117;28;20968;-56
2022/07/14 11:31:57;;;;;;;4.67;1.03;;;21.60;99.90;;;;;;4974780;28;20467;-57
2022/07/14 11:37:14;;;;;;;4.40;1.10;;;21.40;99.90;;;;;;4975011;28;20176;-57
2022/07/14 11:39:44;;;;;;;5.47;1.77;;;21.50;99.90;;;;;;4975344;28;20468;-57
2022/07/14 11:42:14;;;;;;;2.73;1.03;;;21.70;99.90;;;;;;4974951;28;21062;-55
2022/07/14 11:44:40;;;;;;;4.80;1.13;;;22.10;99.90;;;;;;4973827;28;20432;-56
2022/07/14 11:47:05;;;;;;;4.30;1.43;;;22.20;99.90;;;;;;4974674;28;20428;-56
2022/07/14 11:49:32;;;;;;;3.23;1.00;;;22.20;99.90;;;;;;4974973;28;20215;-56
2022/07/14 11:52:01;;;;;;;3.03;0.83;;;21.80;99.90;;;;;;4974567;28;20251;-56
2022/07/14 11:54:27;;;;;;;2.70;1.27;;;21.50;99.90;;;;;;4974657;28;20420;-57
2022/07/14 11:57:05;;;;;;;3.40;0.83;;;21.40;99.90;;;;;;4974953;28;20409;-57
2022/07/14 11:59:33;;;;;;;7.73;1.30;;;21.50;99.90;;;;;;4974996;28;20421;-58
2022/07/14 12:02:15;;;;;;;3.70;1.00;;;21.60;99.90;;;;;;4974491;28;20450;-57
2022/07/14 12:04:59;;;;;;;4.60;0.80;;;21.90;99.90;;;;;;4974941;28;20467;-56
2022/07/14 12:07:47;;;;;;;1.47;0.90;;;22.20;99.90;;;;;;4974264;28;20427;-57
2022/07/14 12:10:15;;;;;;;2.47;1.00;;;22.40;99.90;;;;;;4974234;28;20416;-56
2022/07/14 12:12:43;;;;;;;2.10;1.03;;;22.30;99.90;;;;;;4974459;28;20478;-56
2022/07/14 12:15:09;;;;;;;4.47;1.07;;;22.00;99.90;;;;;;4974429;28;20409;-56
2022/07/14 12:17:55;;;;;;;4.07;1.10;;;21.60;99.90;;;;;;4974037;28;20919;-59
2022/07/14 12:20:22;;;;;;;2.03;0.80;;;21.60;99.90;;;;;;4973968;28;20442;-57
2022/07/14 12:22:55;;;;;;;2.90;1.00;;;21.30;99.90;;;;;;4974076;28;20436;-56
2022/07/14 12:25:31;;;;;;;5.03;1.00;;;21.10;99.90;;;;;;4974456;28;20759;-56
2022/07/14 12:27:58;;;;;;;4.07;1.47;;;21.10;99.90;;;;;;4973001;28;20428;-57
2022/07/14 12:30:23;;;;;;;1.77;0.90;;;21.00;99.90;;;;;;4973934;28;20405;-57
2022/07/14 12:32:54;;;;;;;2.83;0.90;;;20.80;99.90;;;;;;4974053;28;21107;-56
2022/07/14 12:35:21;;;;;;;2.63;0.70;;;20.80;99.90;;;;;;4973732;28;20184;-57
2022/07/14 12:37:50;;;;;;;2.73;0.80;;;20.90;99.90;;;;;;4973955;28;20424;-57
2022/07/14 12:40:17;;;;;;;4.17;1.00;;;21.10;99.90;;;;;;4973988;28;20476;-56
2022/07/14 12:42:44;;;;;;;3.03;0.93;;;21.10;99.90;;;;;;4973838;28;20781;-56
2022/07/14 12:45:09;;;;;;;3.83;0.97;;;21.10;99.90;;;;;;4973875;28;20412;-56
2022/07/14 12:47:55;;;;;;;2.90;0.87;;;21.10;99.90;;;;;;4973659;28;20786;-56
2022/07/14 12:50:23;;;;;;;7.67;1.10;;;21.10;99.90;;;;;;4975703;28;20196;-57
2022/07/14 12:52:53;;;;;;;5.70;1.07;;;21.00;99.90;;;;;;4993285;28;20412;-57
2022/07/14 12:55:38;;;;;;;2.87;0.83;;;21.10;99.90;;;;;;4993283;28;20406;-56
2022/07/14 12:58:06;;;;;;;2.40;0.90;;;21.20;99.90;;;;;;4993166;28;20418;-57
2022/07/14 13:00:33;;;;;;;3.03;0.80;;;21.50;99.90;;;;;;4993240;28;20959;-56
2022/07/14 13:03:12;;;;;;;1.50;0.80;;;21.60;99.90;;;;;;4991288;28;20423;-56